Alakanuk, AK (99554)

10:46 PM AKDT on July 13, 2014 (GMT -0800)
Emmonak (PAEM) Elev 13 ft | 62.79 °N, 164.49 °W | Change Station

Current weather conditions updated 10 minutes ago

Overcast
Overcast
55 °F
Feels Like 55 °F
N
16
Wind Variable Wind from SSW
Gusts 25 mph

Tomorrow is forecast to be nearly the same temperature as today. Showers ending by midday.

Today
High -- | Low -- °F
--% Chance of Precip.
Yesterday
High -- | Low -- °F
Precip. -- in
5:28 AM 0:38 AM
Waning Gibbous, 95% visible
Pressure 30.03 in
Visibility 10.0 miles
Clouds Overcast 8000 ft
Dew Point 45 °F
Humidity 67%
Rainfall 0.00 in
Snow Depth Not available.
UV 0 out of 12
Pollen Not available.
Air Quality Not available.
Flu Activity Sporadic
METAR PAEM 140636Z AUTO 21014G22KT 10SM OVC080 13/07 A3003 RMK AO1

More Conditions Fewer Conditions

Pressure 30.03 in
Visibility 10.0 miles
Clouds Overcast 8000 ft
Dew Point 45 °F
Humidity 67%
Rainfall 0.00 in
Snow Depth Not available.
UV 0 out of 12
Pollen Not available.
Air Quality Not available.
Flu Activity Sporadic
METAR PAEM 140636Z AUTO 21014G22KT 10SM OVC080 13/07 A3003 RMK AO1

More Conditions Fewer Conditions

10-Day Weather Forecast

Almanac

Astronomy

Jul. 13, 2014 Rise Set
Actual Time 5:28 AM AKDT 12:38 AM AKDT
Civil Twilight 3:36 AM AKDT 2:31 AM AKDT
Nautical Twilight Sun does not rise Sun does not rise
Astronomical Twilight Sun does not rise Sun does not rise
Moon No Moon Rise 8:17 AM AKDT (7/13)
Length of Visible Light 22h 55m
Length of Day
19h 10m
Tomorrow will be 4m 39s shorter.
Waning Gibbous, 95% of the Moon is Illuminated
Jul 14
Waning Gibbous
Jul 18
Last Quarter
Jul 26
New
Aug 3
First Quarter
Aug 10
Full

Community

WunderPhotos

Upload Photos

1,733,565 photos uploaded!

Nearby

Snow Depth

Station Depth Elevation
Rocky Point 2 in 500 ft
Susitna Valley High 2 in 375 ft
Mcneil Canyon 1 in 1320 ft
Point Mackenzie 1 in 200 ft
Port Graham 0 in 300 ft

Earthquake Activity

City Distance Mag. Time & Date
No recent earthquake activity has been reported nearby.
Minimum magnitude displayed is 2.5.

Coastal Water Temperatures

Place Temperature
No Stations Reporting

Nearby Weather Stations

There are no personal weather stations in this area.